Time;durP1;ratioP1;P1;durP2;ratioP2;P2;SDS_P1;SDS_P2;PMS_P1;PMS_P2;Temp;Humidity;BMP_temperature;BMP_pressure;BME280_temperature;BME280_humidity;BME280_pressure;Samples;Min_cycle;Max_cycle;Signal;HPM_P1;HPM_P2
2021/09/27 00:01:06;;;;;;;;;;;;;;;17.74;68.66;101759.73;1726954;83;20125;-80
2021/09/27 00:03:32;;;;;;;;;;;;;;;17.72;68.65;101757.72;1729569;83;20210;-77
2021/09/27 00:05:59;;;;;;;;;;;;;;;17.67;68.73;101761.67;1722058;82;21754;-79
2021/09/27 00:08:25;;;;;;;;;;;;;;;17.62;68.93;101768.58;1725065;83;20081;-77
2021/09/27 00:10:55;;;;;;;;;;;;;;;17.58;68.95;101757.95;1729495;83;20149;-79
2021/09/27 00:13:22;;;;;;;;;;;;;;;17.55;68.74;101756.88;1725789;83;20082;-77
2021/09/27 00:15:50;;;;;;;;;;;;;;;17.53;68.67;101753.98;1729159;83;20216;-76
2021/09/27 00:18:19;;;;;;;;;;;;;;;17.50;68.68;101759.00;1721336;82;21151;-79
2021/09/27 00:20:52;;;;;;;;;;;;;;;17.45;68.82;101755.91;1729401;83;20135;-80
2021/09/27 00:23:18;;;;;;;;;;;;;;;17.41;68.88;101751.84;1722818;82;20423;-79
2021/09/27 00:25:45;;;;;;;;;;;;;;;17.40;68.99;101747.07;1729229;82;20211;-79
2021/09/27 00:28:12;;;;;;;;;;;;;;;17.39;69.01;101744.55;1729378;83;20097;-79
2021/09/27 00:30:38;;;;;;;;;;;;;;;17.40;69.00;101751.01;1726160;83;21158;-79
2021/09/27 00:33:05;;;;;;;;;;;;;;;17.42;69.06;101746.97;1729986;81;20132;-79
2021/09/27 00:35:35;;;;;;;;;;;;;;;17.43;69.06;101746.83;1722197;83;20100;-80
2021/09/27 00:38:01;;;;;;;;;;;;;;;17.43;68.99;101745.52;1727388;82;20124;-80
2021/09/27 00:40:30;;;;;;;;;;;;;;;17.44;69.29;101740.64;1718795;83;20167;-80
2021/09/27 00:42:57;;;;;;;;;;;;;;;17.48;69.38;101741.23;1729500;83;21789;-79
2021/09/27 00:45:26;;;;;;;;;;;;;;;17.53;69.01;101742.17;1729480;83;20084;-79
2021/09/27 00:47:52;;;;;;;;;;;;;;;17.54;69.11;101742.55;1729448;83;20117;-79
2021/09/27 00:50:21;;;;;;;;;;;;;;;17.55;69.27;101739.81;1726257;83;20247;-79
2021/09/27 00:52:47;;;;;;;;;;;;;;;17.58;69.12;101737.45;1725027;83;20084;-79
2021/09/27 00:55:16;;;;;;;;;;;;;;;17.59;69.22;101743.04;1720537;83;21154;-77
2021/09/27 00:57:42;;;;;;;;;;;;;;;17.59;69.21;101746.50;1704559;83;20165;-79
2021/09/27 01:00:10;;;;;;;;;;;;;;;17.57;68.68;101745.80;1725782;82;20084;-79
2021/09/27 01:02:37;;;;;;;;;;;;;;;17.56;68.65;101743.28;1727584;82;20450;-78
2021/09/27 01:05:05;;;;;;;;;;;;;;;17.55;68.54;101738.50;1711254;83;20141;-80
2021/09/27 01:07:37;;;;;;;;;;;;;;;17.55;68.44;101738.50;1719979;82;21162;-79
2021/09/27 01:10:20;;;;;;;;;;;;;;;17.55;68.35;101736.34;1729185;83;20109;-79
2021/09/27 01:13:01;;;;;;;;;;;;;;;17.52;68.24;101730.84;1728368;83;20089;-79
2021/09/27 01:15:40;;;;;;;;;;;;;;;17.52;68.10;101733.46;1721386;82;20472;-79
2021/09/27 01:18:13;;;;;;;;;;;;;;;17.51;68.10;101734.91;1723229;83;20176;-79
2021/09/27 01:20:47;;;;;;;;;;;;;;;17.52;68.25;101736.09;1720823;83;21145;-79
2021/09/27 01:23:38;;;;;;;;;;;;;;;17.51;68.19;101733.59;1717990;82;20101;-78
2021/09/27 01:26:36;;;;;;;;;;;;;;;17.50;68.10;101735.38;1721709;83;20120;-79
2021/09/27 01:29:21;;;;;;;;;;;;;;;17.51;67.99;101733.12;1729476;83;20081;-79
2021/09/27 01:32:06;;;;;;;;;;;;;;;17.52;67.93;101735.28;1728121;82;20109;-79
2021/09/27 01:34:38;;;;;;;;;;;;;;;17.53;68.35;101729.05;1716900;83;20790;-80
2021/09/27 01:37:08;;;;;;;;;;;;;;;17.53;67.97;101736.92;1725677;82;20161;-80
2021/09/27 01:39:41;;;;;;;;;;;;;;;17.53;68.24;101737.77;1725892;83;20447;-78
2021/09/27 01:42:21;;;;;;;;;;;;;;;17.52;68.16;101730.84;1719078;83;20136;-79
2021/09/27 01:45:00;;;;;;;;;;;;;;;17.52;68.22;101731.34;1725572;83;20181;-79
2021/09/27 01:47:36;;;;;;;;;;;;;;;17.50;68.34;101737.17;1727196;82;21156;-79
2021/09/27 01:50:22;;;;;;;;;;;;;;;17.48;68.50;101735.98;1719475;83;20085;-78
2021/09/27 01:52:53;;;;;;;;;;;;;;;17.44;69.63;101739.33;1729726;83;20125;-79
2021/09/27 01:55:26;;;;;;;;;;;;;;;17.36;70.76;101730.36;1729167;83;20121;-80
2021/09/27 01:58:08;;;;;;;;;;;;;;;17.30;70.99;101722.49;1699534;83;20152;-78
2021/09/27 02:00:40;;;;;;;;;;;;;;;17.28;71.21;101732.28;1727498;83;21845;-78
2021/09/27 02:03:16;;;;;;;;;;;;;;;17.29;71.42;101733.93;1693142;83;20147;-78
2021/09/27 02:05:48;;;;;;;;;;;;;;;17.30;71.35;101725.59;1723483;83;20089;-79
2021/09/27 02:08:31;;;;;;;;;;;;;;;17.32;71.19;101727.64;1727265;83;20124;-79
2021/09/27 02:11:07;;;;;;;;;;;;;;;17.32;71.03;101731.10;1729388;81;20136;-80
2021/09/27 02:13:43;;;;;;;;;;;;;;;17.31;71.04;101728.58;1723987;82;21145;-80
2021/09/27 02:16:19;;;;;;;;;;;;;;;17.28;70.94;101726.20;1724970;83;20096;-79
2021/09/27 02:18:58;;;;;;;;;;;;;;;17.26;70.99;101734.17;1721561;82;20533;-79
2021/09/27 02:21:27;;;;;;;;;;;;;;;17.22;71.22;101736.69;1723907;83;20134;-79
2021/09/27 02:24:03;;;;;;;;;;;;;;;17.16;71.55;101737.64;1711068;83;20101;-80
2021/09/27 02:26:30;;;;;;;;;;;;;;;17.12;71.63;101739.66;1729454;83;21795;-80
2021/09/27 02:28:57;;;;;;;;;;;;;;;17.08;71.55;101739.52;1729458;83;20113;-79
2021/09/27 02:31:32;;;;;;;;;;;;;;;17.05;71.52;101736.30;1729267;83;20451;-80
2021/09/27 02:34:08;;;;;;;;;;;;;;;17.02;71.41;101730.81;1725398;82;20098;-78
2021/09/27 02:36:38;;;;;;;;;;;;;;;17.00;71.39;101730.11;1726718;82;20147;-79
2021/09/27 02:39:11;;;;;;;;;;;;;;;16.98;71.28;101729.36;1724636;82;21182;-78
2021/09/27 02:41:49;;;;;;;;;;;;;;;16.98;71.24;101724.13;1728562;83;20120;-78
2021/09/27 02:44:15;;;;;;;;;;;;;;;16.97;71.18;101722.47;1721856;83;20093;-78
2021/09/27 02:46:43;;;;;;;;;;;;;;;16.98;71.01;101722.81;1726481;82;20144;-80
2021/09/27 02:49:12;;;;;;;;;;;;;;;16.98;70.81;101717.56;1727161;83;20168;-79
2021/09/27 02:51:41;;;;;;;;;;;;;;;16.96;70.84;101714.23;1719426;82;21228;-79
2021/09/27 02:54:08;;;;;;;;;;;;;;;16.96;70.99;101714.70;1723724;82;20084;-79
2021/09/27 02:56:59;;;;;;;;;;;;;;;16.96;71.21;101712.92;1725627;83;20096;-79
2021/09/27 02:59:47;;;;;;;;;;;;;;;16.94;71.30;101716.95;1729651;83;20413;-79
2021/09/27 03:02:46;;;;;;;;;;;;;;;16.91;71.49;101717.70;1729746;83;20128;-77
2021/09/27 03:05:51;;;;;;;;;;;;;;;16.88;71.67;101722.67;1729607;83;21823;-77
2021/09/27 03:08:49;;;;;;;;;;;;;;;16.81;71.46;101724.58;1667232;86;20162;-78
2021/09/27 03:11:31;;;;;;;;;;;;;;;16.77;71.52;101723.12;1670003;86;20134;-75
2021/09/27 03:14:27;;;;;;;;;;;;;;;16.70;71.76;101733.70;1717533;82;20085;-79
2021/09/27 03:16:57;;;;;;;;;;;;;;;16.67;72.11;101727.38;1725827;83;20150;-78
2021/09/27 03:19:53;;;;;;;;;;;;;;;16.63;72.40;101730.70;1724223;82;21150;-78
2021/09/27 03:22:59;;;;;;;;;;;;;;;16.61;72.62;101720.82;1727630;83;20092;-77
2021/09/27 03:25:57;;;;;;;;;;;;;;;16.59;72.67;101735.80;1727312;83;20104;-78
2021/09/27 03:28:42;;;;;;;;;;;;;;;16.55;72.86;101726.99;1681209;83;20213;-79
2021/09/27 03:31:21;;;;;;;;;;;;;;;16.49;73.05;101736.11;1725439;82;20153;-78
2021/09/27 03:34:19;;;;;;;;;;;;;;;16.47;73.39;101747.63;1723058;83;21167;-79
2021/09/27 03:37:11;;;;;;;;;;;;;;;16.43;73.49;101747.52;1718083;83;20177;-78
2021/09/27 03:39:59;;;;;;;;;;;;;;;16.39;73.47;101745.13;1725585;83;20073;-80
2021/09/27 03:42:56;;;;;;;;;;;;;;;16.39;73.68;101743.81;1728675;83;20666;-80
2021/09/27 03:45:29;;;;;;;;;;;;;;;16.41;73.78;101741.06;1692715;83;20144;-84
2021/09/27 03:47:59;;;;;;;;;;;;;;;16.43;73.81;101740.50;1693491;85;21103;-79
2021/09/27 03:50:32;;;;;;;;;;;;;;;16.42;73.93;101737.51;1708808;83;20077;-79
2021/09/27 03:53:11;;;;;;;;;;;;;;;16.41;74.09;101732.73;1724307;83;20117;-79
2021/09/27 03:55:50;;;;;;;;;;;;;;;16.43;74.26;101743.13;1710049;82;20098;-79
2021/09/27 03:58:34;;;;;;;;;;;;;;;16.43;74.49;101744.43;1713650;82;20114;-79
2021/09/27 04:01:08;;;;;;;;;;;;;;;16.43;74.80;101747.05;1706547;83;39139;-78
2021/09/27 04:04:12;;;;;;;;;;;;;;;16.41;74.90;101747.14;1730594;83;20145;-79
2021/09/27 04:06:42;;;;;;;;;;;;;;;16.40;75.12;101745.47;1723994;82;20108;-79
2021/09/27 04:09:30;;;;;;;;;;;;;;;16.40;75.35;101754.64;1729693;83;20423;-77
2021/09/27 04:12:00;;;;;;;;;;;;;;;16.41;75.49;101752.39;1691224;83;20141;-78
2021/09/27 04:14:39;;;;;;;;;;;;;;;16.44;75.68;101752.63;1718876;82;21215;-78
2021/09/27 04:17:27;;;;;;;;;;;;;;;16.48;75.80;101757.17;1730326;82;20089;-77
2021/09/27 04:20:15;;;;;;;;;;;;;;;16.50;75.66;101754.80;1730431;83;20105;-79
2021/09/27 04:22:51;;;;;;;;;;;;;;;16.52;75.65;101753.39;1730127;83;20077;-78
2021/09/27 04:25:30;;;;;;;;;;;;;;;16.53;75.68;101759.00;1729556;83;20121;-78
2021/09/27 04:28:06;;;;;;;;;;;;;;;16.53;75.77;101759.81;1730310;83;21292;-78
2021/09/27 04:30:57;;;;;;;;;;;;;;;16.53;75.83;101756.38;1724097;83;20415;-79
2021/09/27 04:33:50;;;;;;;;;;;;;;;16.53;75.85;101761.63;1728391;83;20141;-78
2021/09/27 04:36:26;;;;;;;;;;;;;;;16.53;75.87;101760.31;1724959;83;20473;-78
2021/09/27 04:38:55;;;;;;;;;;;;;;;16.55;75.93;101756.66;1730375;83;20154;-78
2021/09/27 04:41:56;;;;;;;;;;;;;;;16.59;75.88;101767.75;1730078;83;21820;-78
2021/09/27 04:44:53;;;;;;;;;;;;;;;16.61;75.75;101766.69;1725628;83;20088;-76
2021/09/27 04:47:52;;;;;;;;;;;;;;;16.63;75.55;101767.86;1666538;85;20169;-78
2021/09/27 04:50:47;;;;;;;;;;;;;;;16.64;75.54;101757.28;1660928;85;20225;-77
2021/09/27 04:53:30;;;;;;;;;;;;;;;16.66;75.36;101763.70;1713063;83;20116;-77
2021/09/27 04:56:36;;;;;;;;;;;;;;;16.66;75.35;101765.86;1726048;82;21158;-78
2021/09/27 04:59:06;;;;;;;;;;;;;;;16.66;75.28;101759.30;1723752;83;20085;-78
2021/09/27 05:01:42;;;;;;;;;;;;;;;16.68;75.12;101764.45;1716730;83;20100;-77
2021/09/27 05:04:29;;;;;;;;;;;;;;;16.70;74.98;101756.83;1729157;82;20121;-77
2021/09/27 05:07:16;;;;;;;;;;;;;;;16.75;74.96;101758.61;1726595;82;20173;-78
2021/09/27 05:10:10;;;;;;;;;;;;;;;16.78;74.58;101762.82;1724722;83;21339;-78
2021/09/27 05:13:00;;;;;;;;;;;;;;;16.82;74.37;101757.69;1726350;82;20116;-78
2021/09/27 05:15:42;;;;;;;;;;;;;;;16.87;74.23;101755.58;1729114;81;20180;-79
2021/09/27 05:18:18;;;;;;;;;;;;;;;16.91;73.99;101758.34;1729603;82;20455;-79
2021/09/27 05:21:01;;;;;;;;;;;;;;;16.96;73.77;101765.37;1725441;83;20309;-78
2021/09/27 05:23:43;;;;;;;;;;;;;;;16.99;73.37;101759.89;1723070;82;21596;-79
2021/09/27 05:26:19;;;;;;;;;;;;;;;17.04;72.81;101762.98;1718279;83;20419;-79
2021/09/27 05:29:00;;;;;;;;;;;;;;;17.07;72.57;101763.26;1726663;83;20521;-79
2021/09/27 05:31:53;;;;;;;;;;;;;;;17.08;72.18;101758.34;1729062;82;20212;-80
2021/09/27 05:34:49;;;;;;;;;;;;;;;17.08;71.69;101764.44;1703956;83;20428;-79
2021/09/27 05:37:24;;;;;;;;;;;;;;;17.09;71.54;101777.92;1714087;82;21186;-78
2021/09/27 05:40:22;;;;;;;;;;;;;;;17.12;71.17;101770.29;1705295;83;20251;-79
2021/09/27 05:43:10;;;;;;;;;;;;;;;17.12;70.91;101771.60;1728988;82;20191;-79
2021/09/27 05:46:06;;;;;;;;;;;;;;;17.16;70.40;101769.95;1729331;82;20097;-79
2021/09/27 05:48:49;;;;;;;;;;;;;;;17.20;70.33;101773.18;1723415;82;20436;-79
2021/09/27 05:51:26;;;;;;;;;;;;;;;17.20;69.64;101771.37;1719538;83;20438;-78
2021/09/27 05:54:23;;;;;;;;;;;;;;;17.15;69.33;101778.77;1714055;82;20136;-78
2021/09/27 05:56:59;;;;;;;;;;;;;;;17.12;69.40;101779.00;1720257;83;20166;-77
2021/09/27 05:59:32;;;;;;;;;;;;;;;17.06;69.51;101782.09;1681154;83;20141;-76
2021/09/27 06:02:26;;;;;;;;;;;;;;;17.02;69.62;101792.44;1719737;82;20430;-77
2021/09/27 06:05:25;;;;;;;;;;;;;;;16.96;69.77;101794.68;1747207;80;20932;-77
2021/09/27 06:08:01;;;;;;;;;;;;;;;16.86;69.68;101788.82;1726491;82;20116;-79
2021/09/27 06:10:46;;;;;;;;;;;;;;;16.82;69.78;101793.08;1719765;82;20088;-78
2021/09/27 06:13:21;;;;;;;;;;;;;;;16.75;69.72;101796.63;1712203;81;20103;-81
2021/09/27 06:16:26;;;;;;;;;;;;;;;16.70;70.08;101792.68;1720713;82;20140;-78
2021/09/27 06:19:03;;;;;;;;;;;;;;;16.65;70.42;101793.03;1726434;82;20152;-78
2021/09/27 06:21:50;;;;;;;;;;;;;;;16.62;70.73;101793.73;1727564;82;20576;-77
2021/09/27 06:24:33;;;;;;;;;;;;;;;16.60;70.87;101795.61;1723948;81;20157;-79
2021/09/27 06:27:11;;;;;;;;;;;;;;;16.60;71.07;101799.54;1729009;81;20165;-79
2021/09/27 06:29:57;;;;;;;;;;;;;;;16.61;71.17;101800.75;1728374;82;20156;-78
2021/09/27 06:32:31;;;;;;;;;;;;;;;16.66;71.34;101801.23;1727841;83;21140;-78
2021/09/27 06:35:01;;;;;;;;;;;;;;;16.73;71.46;101805.09;1726843;82;20089;-77
2021/09/27 06:37:27;;;;;;;;;;;;;;;16.82;71.40;101808.34;1730908;81;20550;-79
2021/09/27 06:39:55;;;;;;;;;;;;;;;16.92;70.99;101808.02;1692015;83;20478;-78
2021/09/27 06:42:21;;;;;;;;;;;;;;;17.03;70.88;101811.16;1725434;81;20118;-78
2021/09/27 06:44:48;;;;;;;;;;;;;;;17.15;70.24;101804.16;1713085;83;21190;-78
2021/09/27 06:47:16;;;;;;;;;;;;;;;17.24;69.82;101805.61;1729155;83;20113;-76
2021/09/27 06:49:42;;;;;;;;;;;;;;;17.31;69.59;101800.27;1729679;83;20446;-78
2021/09/27 06:52:11;;;;;;;;;;;;;;;17.38;69.29;101798.84;1731923;81;20196;-76
2021/09/27 06:54:37;;;;;;;;;;;;;;;17.43;69.20;101799.31;1733686;81;20163;-77
2021/09/27 06:57:04;;;;;;;;;;;;;;;17.46;69.36;101800.39;1723421;82;21096;-79
2021/09/27 06:59:31;;;;;;;;;;;;;;;17.48;69.49;101795.84;1731223;82;20286;-78
2021/09/27 07:01:58;;;;;;;;;;;;;;;17.50;69.38;101802.31;1737142;82;20237;-79
2021/09/27 07:04:25;;;;;;;;;;;;;;;17.51;69.53;101805.77;1732271;81;20226;-81
2021/09/27 07:06:52;;;;;;;;;;;;;;;17.53;69.67;101803.85;1737016;82;20156;-80
2021/09/27 07:09:18;;;;;;;;;;;;;;;17.55;69.62;101806.74;1720849;81;21846;-81
2021/09/27 07:11:45;;;;;;;;;;;;;;;17.58;69.75;101809.13;1733086;82;20169;-77
2021/09/27 07:14:14;;;;;;;;;;;;;;;17.61;69.77;101811.55;1734736;81;20132;-80
2021/09/27 07:16:41;;;;;;;;;;;;;;;17.61;69.55;101813.34;1719626;81;20215;-79
2021/09/27 07:19:11;;;;;;;;;;;;;;;17.61;69.43;101810.71;1739094;81;20115;-79
2021/09/27 07:21:39;;;;;;;;;;;;;;;17.63;69.05;101813.56;1740112;81;21748;-79
2021/09/27 07:24:06;;;;;;;;;;;;;;;17.66;68.55;101812.48;1741573;81;20099;-79
2021/09/27 07:26:36;;;;;;;;;;;;;;;17.69;68.16;101817.03;1739678;82;20126;-79
2021/09/27 07:29:07;;;;;;;;;;;;;;;17.72;67.83;101819.89;1730711;81;20479;-78
2021/09/27 07:31:37;;;;;;;;;;;;;;;17.74;67.53;101815.38;1748495;81;20466;-77
2021/09/27 07:34:06;;;;;;;;;;;;;;;17.77;67.34;101812.00;1722598;82;21214;-76
2021/09/27 07:36:33;;;;;;;;;;;;;;;17.80;67.23;101818.36;1723144;82;20774;-82
2021/09/27 07:39:00;;;;;;;;;;;;;;;17.83;67.29;101818.59;1715523;83;20158;-77
2021/09/27 07:41:29;;;;;;;;;;;;;;;17.89;66.95;101816.32;1729460;82;20270;-80
2021/09/27 07:43:55;;;;;;;;;;;;;;;17.96;66.67;101819.30;1740496;81;20147;-79
2021/09/27 07:46:23;;;;;;;;;;;;;;;18.02;66.72;101823.23;1749609;81;20962;-78
2021/09/27 07:48:50;;;;;;;;;;;;;;;18.07;66.59;101819.28;1735133;81;20233;-78
2021/09/27 07:51:20;;;;;;;;;;;;;;;18.12;66.52;101814.52;1732340;81;20148;-74
2021/09/27 07:53:46;;;;;;;;;;;;;;;18.18;66.34;101823.22;1725557;82;20190;-78
2021/09/27 07:56:13;;;;;;;;;;;;;;;18.23;66.53;101821.52;1738689;81;20555;-77
2021/09/27 07:58:41;;;;;;;;;;;;;;;18.29;66.37;101822.34;1738580;81;22007;-77
2021/09/27 08:01:08;;;;;;;;;;;;;;;18.36;66.39;101824.36;1742741;81;20291;-79
2021/09/27 08:03:36;;;;;;;;;;;;;;;18.42;66.33;101829.13;1744159;80;20252;-79
2021/09/27 08:06:07;;;;;;;;;;;;;;;18.49;66.31;101821.58;1732330;80;20232;-81
2021/09/27 08:08:34;;;;;;;;;;;;;;;18.57;65.99;101824.95;1740148;80;20983;-78
2021/09/27 08:11:01;;;;;;;;;;;;;;;18.61;65.75;101825.88;1729229;80;21751;-80
2021/09/27 08:13:30;;;;;;;;;;;;;;;18.64;65.78;101822.16;1741651;80;20218;-78
2021/09/27 08:15:57;;;;;;;;;;;;;;;18.71;65.76;101824.17;1740853;80;20268;-77
2021/09/27 08:18:31;;;;;;;;;;;;;;;18.77;65.41;101818.41;1732644;81;20179;-79
2021/09/27 08:21:02;;;;;;;;;;;;;;;18.84;65.45;101815.63;1740901;81;20547;-78
2021/09/27 08:23:30;;;;;;;;;;;;;;;18.94;65.45;101816.55;1754489;81;21122;-78
2021/09/27 08:25:57;;;;;;;;;;;;;;;19.03;65.09;101815.78;1747222;81;20140;-79
2021/09/27 08:28:25;;;;;;;;;;;;;;;19.11;64.72;101820.41;1724554;82;20361;-75
2021/09/27 08:30:56;;;;;;;;;;;;;;;19.16;64.14;101816.91;1738374;82;20458;-78
2021/09/27 08:33:24;;;;;;;;;;;;;;;19.21;64.05;101816.53;1754739;81;20107;-79
2021/09/27 08:35:52;;;;;;;;;;;;;;;19.26;63.74;101807.28;1731884;81;21082;-76
2021/09/27 08:38:21;;;;;;;;;;;;;;;19.34;63.83;101810.08;1731216;81;20117;-77
2021/09/27 08:41:08;;;;;;;;;;;;;;;19.46;64.06;101806.44;1721565;82;20434;-81
2021/09/27 08:43:50;;;;;;;;;;;;;;;19.60;63.75;101808.38;1730330;81;20144;-79
2021/09/27 08:46:49;;;;;;;;;;;;;;;19.72;63.15;101810.78;1735380;81;20173;-78
2021/09/27 08:49:29;;;;;;;;;;;;;;;19.85;62.27;101811.88;1721998;83;20171;-76
2021/09/27 08:51:56;;;;;;;;;;;;;;;19.94;61.47;101812.42;1728984;81;20293;-78
2021/09/27 08:54:26;;;;;;;;;;;;;;;20.00;61.21;101805.30;1744818;81;20105;-79
2021/09/27 08:57:06;;;;;;;;;;;;;;;20.13;60.69;101810.32;1727956;82;20324;-77
2021/09/27 08:59:55;;;;;;;;;;;;;;;20.18;59.89;101808.94;1754420;81;20169;-75
2021/09/27 09:02:54;;;;;;;;;;;;;;;20.26;59.97;101806.95;1742693;81;22645;-79
2021/09/27 09:05:33;;;;;;;;;;;;;;;20.32;58.98;101810.39;1723450;83;20124;-78
2021/09/27 09:08:26;;;;;;;;;;;;;;;20.34;58.78;101806.64;1729065;83;20198;-77
2021/09/27 09:11:02;;;;;;;;;;;;;;;20.42;58.98;101805.46;1736089;82;20185;-77
2021/09/27 09:13:39;;;;;;;;;;;;;;;20.56;58.50;101802.44;1725581;80;20112;-77
2021/09/27 09:16:08;;;;;;;;;;;;;;;20.71;58.32;101803.35;1725139;82;20465;-78
2021/09/27 09:18:39;;;;;;;;;;;;;;;20.88;58.20;101799.99;1724522;82;20166;-81
2021/09/27 09:21:11;;;;;;;;;;;;;;;21.04;57.09;101798.45;1725557;82;20148;-77
2021/09/27 09:23:43;;;;;;;;;;;;;;;21.16;56.47;101797.83;1726270;82;20121;-78
2021/09/27 09:26:13;;;;;;;;;;;;;;;21.26;55.28;101792.05;1728771;81;20536;-73
2021/09/27 09:28:42;;;;;;;;;;;;;;;21.33;55.19;101790.50;1719989;82;21489;-77
2021/09/27 09:31:15;;;;;;;;;;;;;;;21.42;55.04;101787.00;1752129;81;20480;-81
2021/09/27 09:33:53;;;;;;;;;;;;;;;21.71;54.38;101780.77;1735168;81;20238;-77
2021/09/27 09:36:22;;;;;;;;;;;;;;;;;;1701505;83;20551;-79
2021/09/27 09:38:55;;;;;;;;;;;;;;;23.94;49.33;101771.88;1706578;83;21095;-78
2021/09/27 09:41:27;;;;;;;;;;;;;;;25.15;46.60;101779.98;1709382;84;21100;-78
2021/09/27 09:43:55;;;;;;;;;;;;;;;26.28;44.33;101776.92;1684264;81;20470;-78
2021/09/27 09:46:29;;;;;;;;;;;;;;;27.36;41.67;101766.81;1728379;82;20435;-76
2021/09/27 09:49:10;;;;;;;;;;;;;;;28.29;39.35;101764.30;1725323;81;20113;-79
2021/09/27 09:51:42;;;;;;;;;;;;;;;28.99;36.95;101768.83;1719248;83;20443;-79
2021/09/27 09:54:14;;;;;;;;;;;;;;;29.60;34.84;101760.48;1727245;83;20133;-77
2021/09/27 09:56:50;;;;;;;;;;;;;;;30.07;34.02;101758.30;1729153;82;20137;-76
